X  Chiuso Dati meteorologici dell'aviazione (METAR)     LIPX Verona-Villafranca Valerio Catullo Airport
Temperatura
8°C Temperatura
1°C Punto di rugiada
62% Umidità



Vento
13 KM/O
8 MPH
4 M/S
7 KTS



220°
SW
Condizioni attuali

Chiaro Chiaro
Pressione 1014.92 (hPa) - 29.97 (inHg)
Visibilità 6.2 (miglio) - 10 (km)
Aeroporto
Codice-Aeroporto LIPX

Posizione: Verona-Villafranca Valerio Catullo Airport
Distanza: 0 (km)

Metar:
LIPX 301420Z 22007KT CAVOK 08/01 Q1015

Ore: 30-01-2023 15:20 CET